Time;durP1;ratioP1;P1;durP2;ratioP2;P2;SDS_P1;SDS_P2;PMS_P1;PMS_P2;Temp;Humidity;BMP_temperature;BMP_pressure;BME280_temperature;BME280_humidity;BME280_pressure;Samples;Min_cycle;Max_cycle;Signal;HPM_P1;HPM_P2
2023/09/17 00:00:11;;;;;;;25.65;10.90;;;14.50;99.90;;;;;;5001377;28;20030;-90
2023/09/17 00:02:37;;;;;;;16.90;10.15;;;14.50;99.90;;;;;;5018089;28;20029;-90
2023/09/17 00:05:03;;;;;;;21.35;11.63;;;14.50;99.90;;;;;;4998731;28;20045;-92
2023/09/17 00:07:29;;;;;;;19.13;9.48;;;14.40;99.90;;;;;;4998358;28;20030;-90
2023/09/17 00:09:55;;;;;;;25.45;12.70;;;14.40;99.90;;;;;;4997838;28;20518;-89
2023/09/17 00:12:21;;;;;;;21.27;11.70;;;14.40;99.90;;;;;;4998020;28;20069;-91
2023/09/17 00:14:47;;;;;;;22.65;11.95;;;14.40;99.90;;;;;;4998165;28;20117;-90
2023/09/17 00:17:13;;;;;;;28.52;12.35;;;14.40;99.90;;;;;;5015082;28;20034;-91
2023/09/17 00:19:38;;;;;;;22.05;11.02;;;14.40;99.90;;;;;;4995931;28;20026;-90
2023/09/17 00:22:06;;;;;;;24.15;11.80;;;14.40;99.90;;;;;;5014050;28;20064;-89
2023/09/17 00:24:33;;;;;;;24.58;11.77;;;14.40;99.90;;;;;;4999335;28;20045;-90
2023/09/17 00:26:58;;;;;;;25.08;10.32;;;14.50;99.90;;;;;;4997293;28;20025;-91
2023/09/17 00:29:25;;;;;;;27.67;10.68;;;14.40;99.90;;;;;;5014230;28;20089;-90
2023/09/17 00:31:50;;;;;;;22.90;10.52;;;14.50;99.90;;;;;;5014507;28;20108;-91
2023/09/17 00:34:16;;;;;;;16.58;8.43;;;14.40;99.90;;;;;;4996968;28;20030;-91
2023/09/17 00:36:42;;;;;;;16.05;10.57;;;14.40;99.90;;;;;;4997080;28;20037;-90
2023/09/17 00:39:08;;;;;;;22.08;10.48;;;14.40;99.90;;;;;;5013665;28;20391;-90
2023/09/17 00:41:34;;;;;;;24.05;10.95;;;14.40;99.90;;;;;;5013206;28;20036;-88
2023/09/17 00:44:00;;;;;;;20.00;11.93;;;14.40;99.90;;;;;;5014860;28;20022;-89
2023/09/17 00:46:26;;;;;;;17.45;9.68;;;14.40;99.90;;;;;;5014890;28;20680;-90
2023/09/17 00:48:52;;;;;;;19.40;10.90;;;14.50;99.90;;;;;;4997748;28;20052;-90
2023/09/17 00:51:18;;;;;;;23.75;10.50;;;14.50;99.90;;;;;;4996987;28;20038;-89
2023/09/17 00:53:44;;;;;;;21.10;10.35;;;14.50;99.90;;;;;;5014266;28;20101;-91
2023/09/17 00:56:10;;;;;;;22.60;11.23;;;14.40;99.90;;;;;;5013522;28;20030;-90
2023/09/17 00:58:37;;;;;;;25.42;12.85;;;14.40;99.90;;;;;;4997268;28;20026;-89
2023/09/17 01:01:07;;;;;;;19.92;11.80;;;14.50;99.90;;;;;;4997381;28;20022;-90
2023/09/17 01:03:34;;;;;;;17.73;11.13;;;14.40;99.90;;;;;;4996841;28;20061;-91
2023/09/17 01:06:02;;;;;;;22.55;11.38;;;14.40;99.90;;;;;;4997703;28;20033;-90
2023/09/17 01:08:28;;;;;;;19.40;11.05;;;14.40;99.90;;;;;;4996714;28;20028;-88
2023/09/17 01:10:54;;;;;;;21.08;12.13;;;14.40;99.90;;;;;;5013381;28;20029;-89
2023/09/17 01:13:24;;;;;;;24.80;12.02;;;14.40;99.90;;;;;;4996993;28;20141;-90
2023/09/17 01:15:51;;;;;;;20.58;11.68;;;14.40;99.90;;;;;;4996893;28;20026;-90
2023/09/17 01:18:21;;;;;;;25.23;12.45;;;14.40;99.90;;;;;;4997617;28;20022;-89
2023/09/17 01:20:47;;;;;;;;;;;14.40;99.90;;;;;;5003655;28;20034;-90
2023/09/17 01:23:26;;;;;;;23.13;12.70;;;14.40;99.90;;;;;;5024705;28;19909;-90
2023/09/17 01:26:12;;;;;;;26.00;12.25;;;14.40;99.90;;;;;;5037349;28;20037;-87
2023/09/17 01:28:38;;;;;;;28.45;12.95;;;14.30;99.90;;;;;;5017157;28;20101;-90
2023/09/17 01:31:05;;;;;;;27.88;12.82;;;14.30;99.90;;;;;;4996731;28;20144;-90
2023/09/17 01:33:30;;;;;;;26.80;12.20;;;14.40;99.90;;;;;;4996869;28;20022;-89
2023/09/17 01:36:16;;;;;;;23.35;12.23;;;14.30;99.90;;;;;;5016851;28;20037;-89
2023/09/17 01:38:46;;;;;;;24.48;12.00;;;14.40;99.90;;;;;;4997470;28;20034;-91
2023/09/17 01:41:13;;;;;;;24.25;13.90;;;14.30;99.90;;;;;;4997365;28;20034;-91
2023/09/17 01:43:40;;;;;;;21.23;12.07;;;14.30;99.90;;;;;;5013508;28;20026;-90
2023/09/17 01:46:07;;;;;;;25.20;13.02;;;14.40;99.90;;;;;;5014229;28;20130;-90
2023/09/17 01:48:35;;;;;;;21.50;11.60;;;14.40;99.90;;;;;;4997093;28;20022;-90
2023/09/17 01:51:02;;;;;;;28.83;13.27;;;14.40;99.90;;;;;;5013404;28;20030;-89
2023/09/17 01:53:28;;;;;;;28.60;13.80;;;14.40;99.90;;;;;;4995879;28;20026;-89
2023/09/17 01:55:56;;;;;;;22.25;12.60;;;14.40;99.90;;;;;;5013743;28;20034;-90
2023/09/17 01:58:23;;;;;;;30.05;14.65;;;14.40;99.90;;;;;;4995948;28;20022;-90
2023/09/17 02:00:52;;;;;;;31.35;13.95;;;14.40;99.90;;;;;;5012897;28;20026;-89
2023/09/17 02:03:18;;;;;;;29.98;14.15;;;14.40;99.90;;;;;;4996474;28;20189;-89
2023/09/17 02:05:44;;;;;;;25.15;12.82;;;14.40;99.90;;;;;;5013009;28;20045;-91
2023/09/17 02:08:10;;;;;;;28.23;13.75;;;14.40;99.90;;;;;;5012436;28;20018;-90
2023/09/17 02:10:35;;;;;;;31.27;15.02;;;14.30;99.90;;;;;;4996011;28;20034;-91
2023/09/17 02:13:01;;;;;;;24.95;13.40;;;14.30;99.90;;;;;;4995510;28;20030;-90
2023/09/17 02:15:27;;;;;;;19.98;11.77;;;14.30;99.90;;;;;;4998468;28;20068;-89
2023/09/17 02:17:52;;;;;;;26.65;14.63;;;14.40;99.90;;;;;;5015730;28;20117;-89
2023/09/17 02:20:18;;;;;;;23.65;13.77;;;14.40;99.90;;;;;;4998449;28;20068;-90
2023/09/17 02:22:45;;;;;;;30.48;15.30;;;14.40;99.90;;;;;;5016940;28;20113;-90
2023/09/17 02:25:11;;;;;;;30.73;14.05;;;14.40;99.90;;;;;;5016624;28;20034;-90
2023/09/17 02:27:39;;;;;;;30.65;16.30;;;14.40;99.90;;;;;;4998978;28;20116;-89
2023/09/17 02:30:05;;;;;;;29.60;15.65;;;14.40;99.90;;;;;;4999106;28;20033;-89
2023/09/17 02:32:31;;;;;;;28.02;17.38;;;14.40;99.90;;;;;;4998953;28;20022;-90
2023/09/17 02:34:57;;;;;;;33.25;19.10;;;14.40;99.90;;;;;;4999222;28;20037;-89
2023/09/17 02:37:23;;;;;;;33.55;19.20;;;14.40;99.90;;;;;;5016373;28;20384;-90
2023/09/17 02:39:49;;;;;;;34.08;20.15;;;14.40;99.90;;;;;;4998112;28;20026;-90
2023/09/17 02:42:15;;;;;;;36.42;18.83;;;14.40;99.90;;;;;;4998218;28;20033;-89
2023/09/17 02:44:42;;;;;;;26.98;15.45;;;14.40;99.90;;;;;;4994252;28;20072;-90
2023/09/17 02:47:09;;;;;;;32.13;18.70;;;14.40;99.90;;;;;;4996851;28;20027;-89
2023/09/17 02:49:34;;;;;;;32.72;18.70;;;14.40;99.90;;;;;;4995745;28;20033;-91
2023/09/17 02:52:00;;;;;;;36.17;18.77;;;14.40;99.90;;;;;;4997736;28;20403;-88
2023/09/17 02:54:26;;;;;;;37.33;19.20;;;14.50;99.90;;;;;;4996267;28;20030;-89
2023/09/17 02:56:52;;;;;;;30.60;16.75;;;14.50;99.90;;;;;;4995544;28;20381;-90
2023/09/17 02:59:18;;;;;;;31.13;19.05;;;14.50;99.90;;;;;;4995360;28;20053;-91
2023/09/17 03:01:43;;;;;;;35.90;19.58;;;14.50;99.90;;;;;;4995526;28;20061;-91
2023/09/17 03:04:09;;;;;;;43.83;19.33;;;14.50;99.90;;;;;;4999615;28;20053;-91
2023/09/17 03:06:34;;;;;;;33.45;17.90;;;14.50;99.90;;;;;;5002528;28;20053;-88
2023/09/17 03:09:01;;;;;;;33.10;18.58;;;14.50;99.90;;;;;;5002895;28;20026;-89
2023/09/17 03:11:27;;;;;;;40.42;21.83;;;14.50;99.90;;;;;;5001648;28;20030;-90
2023/09/17 03:13:55;;;;;;;38.13;20.10;;;14.60;99.90;;;;;;4998508;28;20033;-90
2023/09/17 03:16:21;;;;;;;43.88;20.23;;;14.60;99.90;;;;;;4998890;28;20026;-90
2023/09/17 03:18:46;;;;;;;38.30;20.63;;;14.60;99.90;;;;;;4999085;28;20027;-90
2023/09/17 03:21:12;;;;;;;40.70;19.02;;;14.60;99.90;;;;;;5000473;28;20034;-90
2023/09/17 03:23:38;;;;;;;38.90;21.02;;;14.60;99.90;;;;;;4997928;28;20026;-91
2023/09/17 03:26:05;;;;;;;31.88;18.73;;;14.60;99.90;;;;;;4994678;28;20041;-90
2023/09/17 03:28:31;;;;;;;37.58;21.02;;;14.50;99.90;;;;;;4995268;28;20057;-90
2023/09/17 03:30:58;;;;;;;37.20;19.23;;;14.60;99.90;;;;;;4996136;28;20060;-90
2023/09/17 03:33:23;;;;;;;37.95;19.38;;;14.50;99.90;;;;;;4994947;28;20026;-91
2023/09/17 03:35:49;;;;;;;39.63;20.08;;;14.50;99.90;;;;;;4994839;28;20431;-91
2023/09/17 03:38:15;;;;;;;30.83;18.58;;;14.50;99.90;;;;;;4994712;28;20088;-89
2023/09/17 03:40:41;;;;;;;36.90;19.23;;;14.50;99.90;;;;;;4995861;28;20038;-91
2023/09/17 03:43:08;;;;;;;33.13;18.52;;;14.50;99.90;;;;;;5007426;28;20038;-90
2023/09/17 03:45:34;;;;;;;30.33;18.98;;;14.50;99.90;;;;;;5029236;28;20077;-88
2023/09/17 03:47:59;;;;;;;35.85;18.33;;;14.50;99.90;;;;;;5015512;28;20030;-90
2023/09/17 03:50:25;;;;;;;35.88;19.38;;;14.50;99.90;;;;;;4997070;28;20033;-90
2023/09/17 03:52:53;;;;;;;36.28;20.63;;;14.40;99.90;;;;;;5014835;28;20033;-89
2023/09/17 03:55:20;;;;;;;35.42;20.13;;;14.50;99.90;;;;;;4997573;28;20026;-89
2023/09/17 03:57:46;;;;;;;36.20;19.50;;;14.40;99.90;;;;;;5014747;28;20018;-89
2023/09/17 04:00:13;;;;;;;34.80;19.77;;;14.40;99.90;;;;;;4997480;28;20057;-91
2023/09/17 04:02:39;;;;;;;38.45;20.13;;;14.50;99.90;;;;;;4997178;28;20049;-90
2023/09/17 04:05:10;;;;;;;32.13;19.15;;;14.50;99.90;;;;;;5014737;28;20030;-89
2023/09/17 04:07:37;;;;;;;36.88;19.85;;;14.50;99.90;;;;;;4997453;28;20034;-91
2023/09/17 04:10:06;;;;;;;39.08;22.13;;;14.60;99.90;;;;;;4997543;28;20037;-92
2023/09/17 04:12:35;;;;;;;30.70;18.83;;;14.60;99.90;;;;;;5014884;28;20497;-90
2023/09/17 04:15:03;;;;;;;32.40;21.30;;;14.70;99.90;;;;;;5014420;28;20026;-91
2023/09/17 04:17:29;;;;;;;33.72;19.15;;;14.80;99.90;;;;;;4996805;28;20022;-89
2023/09/17 04:19:55;;;;;;;35.60;22.35;;;14.80;99.90;;;;;;4995563;28;20028;-91
2023/09/17 04:22:20;;;;;;;39.88;21.52;;;14.80;99.90;;;;;;4996904;28;20026;-88
2023/09/17 04:24:46;;;;;;;31.75;20.85;;;14.80;99.90;;;;;;4997015;28;20064;-89
2023/09/17 04:27:13;;;;;;;36.85;21.77;;;14.80;99.90;;;;;;4997191;28;20037;-90
2023/09/17 04:29:39;;;;;;;31.45;18.88;;;14.80;99.90;;;;;;4996969;28;20037;-90
2023/09/17 04:32:05;;;;;;;36.42;20.80;;;14.80;99.90;;;;;;4996914;28;20018;-92
2023/09/17 04:34:30;;;;;;;33.35;19.00;;;14.80;99.90;;;;;;4996851;28;20028;-89
2023/09/17 04:36:58;;;;;;;34.08;21.65;;;14.80;99.90;;;;;;4996375;28;20095;-89
2023/09/17 04:39:27;;;;;;;33.22;18.58;;;14.80;99.90;;;;;;5012707;28;20034;-90
2023/09/17 04:41:53;;;;;;;34.85;21.10;;;14.70;99.90;;;;;;4996106;28;20086;-89
2023/09/17 04:44:19;;;;;;;33.13;19.45;;;14.70;99.90;;;;;;4995978;28;20113;-90
2023/09/17 04:46:45;;;;;;;38.53;21.63;;;14.70;99.90;;;;;;4996124;28;20112;-90
2023/09/17 04:49:11;;;;;;;28.35;18.98;;;14.70;99.90;;;;;;5007034;28;20105;-91
2023/09/17 04:51:37;;;;;;;31.50;20.98;;;14.80;99.90;;;;;;4986475;28;20076;-90
2023/09/17 04:54:05;;;;;;;31.25;19.33;;;14.70;99.90;;;;;;4997452;28;20475;-90
2023/09/17 04:56:31;;;;;;;31.95;20.27;;;14.70;99.90;;;;;;5002142;28;20030;-91
2023/09/17 04:59:00;;;;;;;40.92;22.52;;;14.70;99.90;;;;;;5020254;28;20061;-90
2023/09/17 05:01:26;;;;;;;38.35;21.40;;;14.70;99.90;;;;;;4997777;28;20045;-90
2023/09/17 05:03:52;;;;;;;33.60;20.55;;;14.70;99.90;;;;;;4996729;28;20030;-90
2023/09/17 05:06:18;;;;;;;35.35;21.85;;;14.60;99.90;;;;;;5013692;28;20083;-91
2023/09/17 05:08:43;;;;;;;37.58;21.83;;;14.70;99.90;;;;;;4996182;28;20109;-89
2023/09/17 05:11:09;;;;;;;38.35;22.70;;;14.70;99.90;;;;;;4996372;28;20040;-90
2023/09/17 05:13:35;;;;;;;41.28;22.55;;;14.70;99.90;;;;;;4996507;28;20052;-89
2023/09/17 05:16:01;;;;;;;35.38;22.13;;;14.70;99.90;;;;;;4996177;28;20025;-90
2023/09/17 05:18:27;;;;;;;41.95;21.50;;;14.70;99.90;;;;;;4996501;28;20121;-89
2023/09/17 05:20:54;;;;;;;39.55;20.90;;;14.70;99.90;;;;;;4996090;28;20112;-92
2023/09/17 05:23:23;;;;;;;33.35;20.05;;;14.60;99.90;;;;;;4995827;28;20029;-91
2023/09/17 05:25:51;;;;;;;37.05;22.15;;;14.70;99.90;;;;;;4996424;28;20450;-92
2023/09/17 05:28:17;;;;;;;32.45;19.83;;;14.60;99.90;;;;;;4996031;28;20030;-91
2023/09/17 05:30:43;;;;;;;34.40;19.88;;;14.70;99.90;;;;;;4995489;28;20030;-91
2023/09/17 05:33:08;;;;;;;35.08;20.95;;;14.60;99.90;;;;;;4997525;28;20022;-89
2023/09/17 05:35:36;;;;;;;33.55;18.95;;;14.60;99.90;;;;;;5009976;28;20022;-91
2023/09/17 05:38:02;;;;;;;33.58;19.40;;;14.60;99.90;;;;;;5000601;28;20025;-92
2023/09/17 05:40:28;;;;;;;31.45;19.80;;;14.60;99.90;;;;;;5000499;28;20042;-90
2023/09/17 05:42:54;;;;;;;33.22;19.13;;;14.60;99.90;;;;;;4997135;28;20034;-90
2023/09/17 05:45:19;;;;;;;35.30;20.48;;;14.60;99.90;;;;;;5013895;28;20054;-91
2023/09/17 05:47:46;;;;;;;27.45;18.13;;;14.60;99.90;;;;;;4996800;28;20086;-90
2023/09/17 05:50:11;;;;;;;31.95;19.40;;;14.50;99.90;;;;;;4998441;28;20066;-89
2023/09/17 05:52:37;;;;;;;34.25;20.48;;;14.50;99.90;;;;;;4999696;28;20026;-90
2023/09/17 05:55:04;;;;;;;34.05;20.25;;;14.50;99.90;;;;;;5000151;28;20026;-89
2023/09/17 05:57:32;;;;;;;36.92;20.20;;;14.50;99.90;;;;;;5016089;28;20058;-91
2023/09/17 05:59:59;;;;;;;34.17;21.50;;;14.50;99.90;;;;;;4993327;28;20029;-90
2023/09/17 06:02:25;;;;;;;37.25;22.33;;;14.50;99.90;;;;;;4992140;28;20026;-91
2023/09/17 06:04:53;;;;;;;34.47;20.33;;;14.50;99.90;;;;;;4996796;28;20084;-89
2023/09/17 06:07:22;;;;;;;36.05;21.92;;;14.50;99.90;;;;;;4989385;28;20021;-89
2023/09/17 06:09:48;;;;;;;35.60;22.27;;;14.50;99.90;;;;;;4993946;28;20026;-90
2023/09/17 06:12:15;;;;;;;32.83;20.92;;;14.50;99.90;;;;;;4990466;28;20454;-90
2023/09/17 06:14:41;;;;;;;37.70;21.55;;;14.50;99.90;;;;;;4998137;28;20049;-90
2023/09/17 06:17:07;;;;;;;37.42;21.58;;;14.50;99.90;;;;;;4994410;28;20045;-91
2023/09/17 06:19:33;;;;;;;33.85;20.98;;;14.50;99.90;;;;;;5001376;28;20030;-89
2023/09/17 06:21:59;;;;;;;38.08;20.92;;;14.50;99.90;;;;;;5000469;28;20089;-91
2023/09/17 06:24:25;;;;;;;30.58;21.65;;;14.50;99.90;;;;;;5008257;28;20050;-89
2023/09/17 06:26:51;;;;;;;35.85;21.27;;;14.50;99.90;;;;;;4997049;28;20030;-91
2023/09/17 06:29:17;;;;;;;33.13;20.00;;;14.50;99.90;;;;;;4980457;28;20036;-88
2023/09/17 06:31:43;;;;;;;37.20;21.67;;;14.60;99.90;;;;;;4980357;28;20031;-89
2023/09/17 06:34:09;;;;;;;35.33;21.95;;;14.60;99.90;;;;;;4997507;28;20024;-88
2023/09/17 06:36:35;;;;;;;35.58;21.20;;;14.60;99.90;;;;;;4997122;28;20026;-90
2023/09/17 06:39:02;;;;;;;38.05;22.20;;;14.60;99.90;;;;;;4997637;28;20022;-90
2023/09/17 06:41:28;;;;;;;32.53;21.25;;;14.60;99.90;;;;;;4997935;28;20033;-90
2023/09/17 06:43:53;;;;;;;36.95;21.90;;;14.60;99.90;;;;;;4994943;28;20470;-90
2023/09/17 06:46:19;;;;;;;33.78;20.25;;;14.60;99.90;;;;;;4994394;28;20046;-90
2023/09/17 06:48:44;;;;;;;29.60;19.08;;;14.60;99.90;;;;;;4980443;28;20401;-89
2023/09/17 06:51:10;;;;;;;39.13;21.38;;;14.60;99.90;;;;;;5005672;28;20034;-90
2023/09/17 06:53:36;;;;;;;39.80;21.33;;;14.60;99.90;;;;;;4997537;28;20018;-90
2023/09/17 06:56:02;;;;;;;33.30;19.95;;;14.70;99.90;;;;;;4979634;28;20030;-90
2023/09/17 06:58:28;;;;;;;34.78;20.25;;;14.70;99.90;;;;;;4979225;28;20022;-90
2023/09/17 07:00:54;;;;;;;34.20;20.23;;;14.70;99.90;;;;;;4979066;28;20121;-91
2023/09/17 07:03:20;;;;;;;36.25;21.67;;;14.70;99.90;;;;;;4982285;28;20026;-91
2023/09/17 07:05:45;;;;;;;34.47;20.90;;;14.70;99.90;;;;;;4996361;28;20042;-90
2023/09/17 07:08:11;;;;;;;31.90;21.25;;;14.70;99.90;;;;;;4979224;28;20026;-90
2023/09/17 07:10:36;;;;;;;35.33;20.67;;;14.80;99.90;;;;;;4979507;28;20435;-91
2023/09/17 07:13:02;;;;;;;39.50;20.23;;;14.80;99.90;;;;;;4979140;28;20030;-90
2023/09/17 07:15:28;;;;;;;35.75;19.88;;;14.80;99.90;;;;;;4978873;28;20057;-90
2023/09/17 07:17:54;;;;;;;33.55;19.92;;;14.80;99.90;;;;;;4978605;28;20480;-92
2023/09/17 07:20:20;;;;;;;28.92;19.13;;;14.80;99.90;;;;;;4978665;28;20387;-91
2023/09/17 07:22:49;;;;;;;34.45;19.30;;;14.90;99.90;;;;;;4996168;28;20033;-89
2023/09/17 07:25:15;;;;;;;29.23;18.23;;;14.90;99.90;;;;;;4978897;28;20510;-90
2023/09/17 07:27:41;;;;;;;34.78;18.17;;;14.90;99.90;;;;;;4978587;28;20026;-91
2023/09/17 07:30:07;;;;;;;22.67;16.17;;;15.00;99.90;;;;;;4978493;28;20081;-90
2023/09/17 07:32:33;;;;;;;28.08;17.63;;;15.00;99.90;;;;;;4978551;28;20022;-90
2023/09/17 07:35:02;;;;;;;31.88;16.85;;;15.00;99.90;;;;;;4994102;28;20175;-90
2023/09/17 07:37:28;;;;;;;26.20;15.43;;;15.10;99.90;;;;;;4978341;28;20030;-93
2023/09/17 07:39:58;;;;;;;30.73;17.98;;;15.10;99.90;;;;;;4984624;28;20054;-93
2023/09/17 07:42:23;;;;;;;28.83;18.05;;;15.10;99.90;;;;;;4996763;28;20026;-90
2023/09/17 07:44:49;;;;;;;26.60;17.50;;;15.20;99.90;;;;;;4997942;28;20058;-91
2023/09/17 07:47:15;;;;;;;28.38;18.83;;;15.10;99.90;;;;;;5015267;28;20478;-90
2023/09/17 07:49:40;;;;;;;35.97;17.88;;;15.20;99.90;;;;;;4997251;28;20022;-91
2023/09/17 07:52:06;;;;;;;27.38;17.10;;;15.20;99.90;;;;;;4997538;28;20128;-92
2023/09/17 07:54:40;;;;;;;24.17;16.15;;;15.20;99.90;;;;;;4997488;28;20049;-94
2023/09/17 07:57:07;;;;;;;31.83;17.17;;;15.20;99.90;;;;;;4997389;28;20034;-92
2023/09/17 07:59:33;;;;;;;20.73;15.90;;;15.20;99.90;;;;;;4997160;28;20105;-93
2023/09/17 08:02:00;;;;;;;25.80;16.67;;;15.20;99.90;;;;;;4992620;28;20173;-92
2023/09/17 08:04:26;;;;;;;27.90;15.88;;;15.30;99.90;;;;;;4996367;28;20038;-93
2023/09/17 08:06:52;;;;;;;32.25;17.15;;;15.30;99.90;;;;;;4987154;28;20030;-92
2023/09/17 08:09:17;;;;;;;27.65;15.70;;;15.40;99.90;;;;;;5004164;28;20025;-93
2023/09/17 08:11:43;;;;;;;31.65;15.43;;;15.50;99.90;;;;;;4987796;28;20019;-94
2023/09/17 08:14:10;;;;;;;28.85;16.58;;;15.50;99.90;;;;;;4985615;28;20030;-93
2023/09/17 08:16:40;;;;;;;25.55;16.00;;;15.60;99.90;;;;;;5003691;28;20021;-92
2023/09/17 08:19:06;;;;;;;26.33;16.40;;;15.70;99.90;;;;;;4987163;28;20084;-91
2023/09/17 08:21:32;;;;;;;22.30;14.98;;;15.70;99.90;;;;;;4987135;28;20265;-90
2023/09/17 08:23:58;;;;;;;24.55;15.48;;;15.80;99.90;;;;;;4983973;28;20038;-90
2023/09/17 08:26:27;;;;;;;27.27;14.50;;;15.90;99.90;;;;;;4989108;28;20045;-94
2023/09/17 08:28:55;;;;;;;24.15;13.63;;;15.90;99.90;;;;;;5004235;28;20033;-91
2023/09/17 08:31:25;;;;;;;19.00;11.82;;;16.00;99.90;;;;;;4985399;28;20022;-92
2023/09/17 08:33:52;;;;;;;20.60;12.33;;;16.00;99.90;;;;;;4985547;28;20018;-93
2023/09/17 08:36:21;;;;;;;25.30;12.07;;;16.10;99.90;;;;;;4985588;28;20031;-93
2023/09/17 08:38:52;;;;;;;20.70;12.77;;;16.20;99.90;;;;;;4985732;28;20114;-94
2023/09/17 08:41:18;;;;;;;16.30;11.52;;;16.30;99.90;;;;;;5005136;28;20178;-92
2023/09/17 08:43:45;;;;;;;19.15;10.80;;;16.30;99.90;;;;;;4986383;28;20060;-92
2023/09/17 08:46:12;;;;;;;21.02;11.65;;;16.30;99.90;;;;;;4985048;28;20054;-92
2023/09/17 08:48:38;;;;;;;20.65;10.82;;;16.40;99.90;;;;;;4987688;28;20114;-91
2023/09/17 08:51:05;;;;;;;19.35;11.05;;;16.40;99.90;;;;;;4986180;28;20030;-94
2023/09/17 08:53:39;;;;;;;15.93;9.98;;;16.40;99.90;;;;;;4985486;28;20037;-91
2023/09/17 08:56:06;;;;;;;14.95;8.88;;;16.40;99.90;;;;;;4975425;28;20048;-92
2023/09/17 08:58:38;;;;;;;15.93;9.88;;;16.50;99.90;;;;;;5000921;28;20014;-89
2023/09/17 09:01:08;;;;;;;21.67;10.45;;;16.40;99.90;;;;;;5011510;28;20018;-90
2023/09/17 09:03:35;;;;;;;16.92;10.40;;;16.50;99.90;;;;;;5003758;28;20108;-94
2023/09/17 09:06:03;;;;;;;15.18;10.50;;;16.40;99.90;;;;;;5011111;28;20045;-92
2023/09/17 09:08:31;;;;;;;21.13;9.73;;;16.40;99.90;;;;;;4988952;28;20475;-93
2023/09/17 09:10:57;;;;;;;16.63;9.80;;;16.40;99.90;;;;;;4989644;28;20096;-91
2023/09/17 09:13:23;;;;;;;18.60;9.63;;;16.30;99.90;;;;;;4988290;28;20018;-91
2023/09/17 09:15:49;;;;;;;19.30;9.75;;;16.30;99.90;;;;;;4992624;28;20045;-93
2023/09/17 09:18:15;;;;;;;20.70;9.75;;;16.30;99.90;;;;;;4990045;28;20022;-93
2023/09/17 09:20:41;;;;;;;17.17;9.23;;;16.30;99.90;;;;;;5008972;28;20101;-92
2023/09/17 09:23:07;;;;;;;18.02;9.07;;;16.40;99.90;;;;;;4993033;28;20022;-93
2023/09/17 09:25:34;;;;;;;15.15;7.88;;;16.40;99.90;;;;;;4996487;28;20101;-91
2023/09/17 09:28:01;;;;;;;14.15;7.57;;;16.40;99.90;;;;;;4993552;28;20022;-92
2023/09/17 09:30:28;;;;;;;15.50;8.05;;;16.50;99.90;;;;;;4990895;28;20068;-90
2023/09/17 09:32:54;;;;;;;13.93;8.48;;;16.60;99.90;;;;;;5007838;28;20048;-91
2023/09/17 09:35:20;;;;;;;17.90;8.30;;;16.70;99.90;;;;;;5008927;28;20025;-91
2023/09/17 09:37:47;;;;;;;16.30;7.80;;;16.70;99.90;;;;;;4988760;28;20030;-91
2023/09/17 09:40:14;;;;;;;14.73;7.72;;;16.80;99.90;;;;;;5009821;28;20030;-92
2023/09/17 09:42:42;;;;;;;18.50;8.00;;;16.70;99.90;;;;;;4988920;28;20026;-94
2023/09/17 09:45:15;;;;;;;14.15;7.40;;;16.70;99.90;;;;;;4992039;28;20526;-91
2023/09/17 09:47:49;;;;;;;17.92;8.10;;;16.70;99.90;;;;;;4994008;28;20088;-91
2023/09/17 09:50:25;;;;;;;13.73;7.45;;;16.80;99.90;;;;;;4991649;28;20462;-91
2023/09/17 09:52:51;;;;;;;16.60;6.75;;;16.90;99.90;;;;;;4994248;28;20113;-92
2023/09/17 09:55:18;;;;;;;17.38;7.00;;;16.90;99.90;;;;;;4986233;28;20029;-90
2023/09/17 09:57:45;;;;;;;16.17;6.88;;;17.00;99.90;;;;;;5008044;28;20037;-90
2023/09/17 10:00:15;;;;;;;16.20;6.68;;;17.00;99.90;;;;;;4990762;28;20030;-94
2023/09/17 10:02:41;;;;;;;12.68;6.70;;;17.00;99.90;;;;;;4989310;28;20022;-91
2023/09/17 10:05:12;;;;;;;22.83;7.60;;;16.90;99.90;;;;;;4988394;28;20038;-92
2023/09/17 10:07:38;;;;;;;15.73;7.20;;;16.90;99.90;;;;;;4988697;28;20041;-94
2023/09/17 10:10:05;;;;;;;15.82;7.10;;;16.90;99.90;;;;;;4988262;28;20475;-91
2023/09/17 10:12:31;;;;;;;19.17;7.15;;;16.90;99.90;;;;;;4984919;28;20023;-94
2023/09/17 10:14:57;;;;;;;15.85;6.50;;;17.10;99.90;;;;;;4990875;28;20061;-92
2023/09/17 10:17:23;;;;;;;18.65;6.72;;;17.30;99.90;;;;;;4979193;28;20033;-93
2023/09/17 10:19:50;;;;;;;12.63;5.95;;;17.50;99.90;;;;;;4980030;28;20029;-92
2023/09/17 10:22:18;;;;;;;17.98;6.60;;;17.60;99.90;;;;;;4979359;28;20038;-92
2023/09/17 10:24:44;;;;;;;16.70;5.82;;;17.70;99.90;;;;;;4979603;28;20502;-91
2023/09/17 10:27:15;;;;;;;13.55;5.90;;;17.90;99.90;;;;;;4979406;28;20036;-92
2023/09/17 10:29:43;;;;;;;15.13;5.55;;;18.10;99.90;;;;;;4980424;28;20080;-92
2023/09/17 10:32:10;;;;;;;10.73;5.30;;;18.30;99.90;;;;;;4980213;28;20030;-92
2023/09/17 10:34:36;;;;;;;11.05;5.32;;;18.40;99.90;;;;;;4979362;28;20094;-92
2023/09/17 10:37:03;;;;;;;10.82;5.22;;;18.60;99.90;;;;;;4982434;28;20029;-93
2023/09/17 10:39:30;;;;;;;11.73;4.78;;;18.60;99.90;;;;;;4992159;28;20566;-93
2023/09/17 10:41:59;;;;;;;12.18;4.63;;;18.70;99.90;;;;;;4989746;28;20027;-93
2023/09/17 10:44:29;;;;;;;11.38;4.78;;;18.80;99.90;;;;;;4989895;28;20621;-93
2023/09/17 10:46:59;;;;;;;7.65;4.05;;;18.90;99.90;;;;;;4989004;28;20317;-91
2023/09/17 10:49:27;;;;;;;10.95;4.65;;;19.00;99.90;;;;;;4987676;28;20056;-92
2023/09/17 10:51:53;;;;;;;11.38;4.70;;;19.00;99.90;;;;;;4989302;28;20022;-93
2023/09/17 10:54:19;;;;;;;9.98;3.88;;;19.00;99.90;;;;;;4989508;28;20023;-92
2023/09/17 10:56:45;;;;;;;9.32;4.45;;;18.90;99.90;;;;;;4987708;28;20029;-93
2023/09/17 10:59:14;;;;;;;12.02;5.25;;;18.80;99.90;;;;;;4990251;28;20025;-92
2023/09/17 11:01:41;;;;;;;9.15;4.65;;;18.80;99.90;;;;;;4989443;28;20488;-92
2023/09/17 11:04:15;;;;;;;15.05;5.78;;;18.70;99.90;;;;;;5010803;28;20121;-91
2023/09/17 11:06:44;;;;;;;13.48;5.22;;;18.50;99.90;;;;;;5007772;28;20019;-92
2023/09/17 11:09:11;;;;;;;9.50;4.50;;;18.50;99.90;;;;;;4996755;28;20483;-93
2023/09/17 11:11:37;;;;;;;12.23;4.53;;;18.40;99.90;;;;;;5002886;28;20030;-92
2023/09/17 11:14:06;;;;;;;14.13;4.53;;;18.50;99.90;;;;;;5001792;28;20034;-93
2023/09/17 11:16:34;;;;;;;8.07;4.20;;;18.40;99.90;;;;;;4998438;28;20026;-91
2023/09/17 11:19:15;;;;;;;13.98;4.88;;;18.30;99.90;;;;;;4998789;28;20489;-92
2023/09/17 11:21:47;;;;;;;9.02;4.60;;;18.40;99.90;;;;;;4998875;28;20468;-90
2023/09/17 11:24:13;;;;;;;10.25;4.22;;;18.60;99.90;;;;;;5016110;28;20030;-91
2023/09/17 11:26:41;;;;;;;12.57;4.45;;;18.70;99.90;;;;;;5015756;28;20019;-93
2023/09/17 11:29:10;;;;;;;14.38;4.88;;;18.80;99.90;;;;;;4995699;28;20030;-93
2023/09/17 11:31:59;;;;;;;10.52;4.50;;;18.80;99.90;;;;;;5016232;28;20091;-93
2023/09/17 11:34:25;;;;;;;10.02;4.60;;;18.80;99.90;;;;;;5012173;28;20502;-91
2023/09/17 11:36:52;;;;;;;10.35;4.03;;;18.80;99.90;;;;;;4998159;28;20376;-91
2023/09/17 11:39:21;;;;;;;9.02;4.10;;;18.80;99.90;;;;;;4992244;28;20030;-93
2023/09/17 11:41:52;;;;;;;11.95;3.85;;;18.80;99.90;;;;;;4986316;28;20026;-93
2023/09/17 11:44:20;;;;;;;10.82;4.50;;;18.90;99.90;;;;;;5003629;28;20030;-93
2023/09/17 11:46:46;;;;;;;11.40;3.85;;;18.90;99.90;;;;;;4987481;28;20034;-93
2023/09/17 11:49:13;;;;;;;8.48;3.90;;;18.90;99.90;;;;;;4990483;28;20030;-93
2023/09/17 11:51:48;;;;;;;9.82;3.85;;;18.90;99.90;;;;;;4987381;28;20033;-92
2023/09/17 11:54:23;;;;;;;7.43;4.15;;;18.90;99.90;;;;;;4987567;28;20491;-92
2023/09/17 11:56:53;;;;;;;14.35;3.88;;;19.00;99.90;;;;;;4995497;28;20033;-93
2023/09/17 11:59:19;;;;;;;10.95;4.47;;;19.00;99.90;;;;;;4992863;28;20022;-93
2023/09/17 12:01:57;;;;;;;5.60;3.38;;;19.00;99.90;;;;;;5000457;28;20022;-94
2023/09/17 12:04:30;;;;;;;9.18;4.30;;;19.00;99.90;;;;;;4998123;28;20045;-92
2023/09/17 12:06:58;;;;;;;8.27;3.85;;;19.10;99.90;;;;;;4992131;28;20037;-94
2023/09/17 12:09:48;;;;;;;9.23;3.53;;;19.10;99.90;;;;;;4992826;28;20017;-93
2023/09/17 12:12:20;;;;;;;7.47;3.45;;;19.00;99.90;;;;;;4986348;28;20022;-93
2023/09/17 12:14:47;;;;;;;9.73;3.70;;;19.00;99.90;;;;;;4986714;28;20022;-92
2023/09/17 12:17:14;;;;;;;9.02;3.50;;;19.10;99.90;;;;;;4985998;28;20472;-93
2023/09/17 12:19:40;;;;;;;8.85;3.40;;;19.20;99.90;;;;;;4987743;28;20021;-94
2023/09/17 12:22:09;;;;;;;7.72;4.05;;;19.40;99.90;;;;;;4984861;28;20446;-93
2023/09/17 12:24:44;;;;;;;11.88;3.55;;;19.60;99.90;;;;;;4985840;28;20041;-93
2023/09/17 12:29:53;;;;;;;7.70;3.15;;;19.80;99.90;;;;;;5015764;28;20034;-93
2023/09/17 12:32:21;;;;;;;8.18;3.03;;;20.00;99.90;;;;;;5010995;28;20034;-92